createdAt,value
2022-11-17T00:00:43.391Z,4.50
2022-11-17T00:03:18.160Z,4.50
2022-11-17T00:05:45.823Z,4.54
2022-11-17T00:08:13.525Z,4.60
2022-11-17T00:10:41.185Z,4.60
2022-11-17T00:13:29.691Z,4.60
2022-11-17T00:15:57.304Z,4.50
2022-11-17T00:18:44.071Z,4.50
2022-11-17T00:21:19.019Z,4.50
2022-11-17T00:23:48.009Z,4.50
2022-11-17T00:26:28.048Z,4.50
2022-11-17T00:29:01.916Z,4.52
2022-11-17T00:31:51.313Z,4.60
2022-11-17T00:34:23.651Z,4.60
2022-11-17T00:36:54.530Z,4.60
2022-11-17T00:39:24.272Z,4.60
2022-11-17T00:41:51.971Z,4.50
2022-11-17T00:44:19.616Z,4.50
2022-11-17T00:46:48.527Z,4.50
2022-11-17T00:49:16.395Z,4.50
2022-11-17T00:51:44.017Z,4.50
2022-11-17T00:54:13.892Z,4.50
2022-11-17T00:56:41.536Z,4.50
2022-11-17T00:59:09.573Z,4.50
2022-11-17T01:01:37.959Z,4.50
2022-11-17T01:04:07.259Z,4.50
2022-11-17T01:06:47.747Z,4.50
2022-11-17T01:09:20.828Z,4.60
2022-11-17T01:11:51.867Z,4.50
2022-11-17T01:14:27.147Z,4.50
2022-11-17T01:16:55.804Z,4.50
2022-11-17T01:19:24.471Z,4.50
2022-11-17T01:21:52.205Z,4.50
2022-11-17T01:24:20.306Z,4.60
2022-11-17T01:26:49.657Z,4.60
2022-11-17T01:29:18.431Z,4.60
2022-11-17T01:31:51.522Z,4.50
2022-11-17T01:34:19.514Z,4.50
2022-11-17T01:37:05.890Z,4.50
2022-11-17T01:39:33.666Z,4.42
2022-11-17T01:42:14.015Z,4.48
2022-11-17T01:44:52.549Z,4.50
2022-11-17T01:47:29.590Z,4.50
2022-11-17T01:50:08.753Z,4.50
2022-11-17T01:52:40.312Z,4.50
2022-11-17T01:55:11.219Z,4.50
2022-11-17T01:57:50.976Z,4.50
2022-11-17T02:00:19.377Z,4.50
2022-11-17T02:02:49.153Z,4.50
2022-11-17T02:05:57.609Z,4.50
2022-11-17T02:08:30.464Z,4.60
2022-11-17T02:11:02.688Z,4.52
2022-11-17T02:13:30.934Z,4.50
2022-11-17T02:15:58.633Z,4.50
2022-11-17T02:18:26.643Z,4.50
2022-11-17T02:21:31.315Z,4.50
2022-11-17T02:24:31.182Z,4.50
2022-11-17T02:27:24.144Z,4.50
2022-11-17T02:30:14.439Z,4.50
2022-11-17T02:33:19.919Z,4.50
2022-11-17T02:36:04.317Z,4.50
2022-11-17T02:38:50.373Z,4.50
2022-11-17T02:41:38.676Z,4.50
2022-11-17T02:44:29.853Z,4.50
2022-11-17T02:47:23.062Z,4.50
2022-11-17T02:50:05.114Z,4.50
2022-11-17T02:52:33.536Z,4.50
2022-11-17T02:55:10.599Z,4.48
2022-11-17T02:57:41.543Z,4.50
2022-11-17T03:00:15.135Z,4.50
2022-11-17T03:03:34.217Z,4.50
2022-11-17T03:06:49.351Z,4.60
2022-11-17T03:09:51.888Z,4.60
2022-11-17T03:12:43.399Z,4.60
2022-11-17T03:15:29.191Z,4.50
2022-11-17T03:18:18.606Z,4.60
2022-11-17T03:21:06.349Z,4.60
2022-11-17T03:23:45.318Z,4.60
2022-11-17T03:26:24.448Z,4.62
2022-11-17T03:28:54.354Z,4.60
2022-11-17T03:31:23.829Z,4.60
2022-11-17T03:33:53.879Z,4.56
2022-11-17T03:36:31.833Z,4.50
2022-11-17T03:39:04.855Z,4.52
2022-11-17T03:41:39.570Z,4.56
2022-11-17T03:44:07.999Z,4.60
2022-11-17T03:46:39.004Z,4.60
2022-11-17T03:49:44.146Z,4.60
2022-11-17T03:52:11.881Z,4.60
2022-11-17T03:54:40.840Z,4.50
2022-11-17T03:57:22.232Z,4.52
2022-11-17T03:59:58.020Z,4.56
2022-11-17T04:02:26.991Z,4.60
2022-11-17T04:05:07.161Z,4.60
2022-11-17T04:07:40.328Z,4.60
2022-11-17T04:10:12.874Z,4.54
2022-11-17T04:12:59.438Z,4.54
2022-11-17T04:15:47.288Z,4.58
2022-11-17T04:18:15.788Z,4.50
2022-11-17T04:20:43.733Z,4.50
2022-11-17T04:23:15.806Z,4.50
2022-11-17T04:26:05.756Z,4.50
2022-11-17T04:28:37.281Z,4.50
2022-11-17T04:31:20.292Z,4.50
2022-11-17T04:33:54.812Z,4.50
2022-11-17T04:36:28.715Z,4.50
2022-11-17T04:38:59.508Z,4.46
2022-11-17T04:41:49.112Z,4.50
2022-11-17T04:44:18.504Z,4.52
2022-11-17T04:46:46.477Z,4.56
2022-11-17T04:49:16.954Z,4.60
2022-11-17T04:51:45.415Z,4.50
2022-11-17T04:54:16.495Z,4.50
2022-11-17T04:56:44.639Z,4.50
2022-11-17T04:59:12.378Z,4.60
2022-11-17T05:01:40.669Z,4.60
2022-11-17T05:04:11.838Z,4.52
2022-11-17T05:06:44.730Z,4.50
2022-11-17T05:09:15.727Z,4.50
2022-11-17T05:12:03.162Z,4.50
2022-11-17T05:14:30.853Z,4.40
2022-11-17T05:17:11.822Z,4.40
2022-11-17T05:19:50.020Z,4.40
2022-11-17T05:22:49.619Z,4.40
2022-11-17T05:25:17.254Z,4.40
2022-11-17T05:27:44.999Z,4.40
2022-11-17T05:30:13.106Z,4.40
2022-11-17T05:32:40.854Z,4.40
2022-11-17T05:35:09.014Z,4.34
2022-11-17T05:37:36.738Z,4.40
2022-11-17T05:40:05.200Z,4.40
2022-11-17T05:42:32.869Z,4.40
2022-11-17T05:45:00.567Z,4.40
2022-11-17T05:47:28.151Z,4.50
2022-11-17T05:49:55.855Z,4.50
2022-11-17T05:52:23.457Z,4.50
2022-11-17T05:54:51.131Z,4.50
2022-11-17T05:57:30.714Z,4.50
2022-11-17T06:00:04.664Z,4.42
2022-11-17T06:02:43.758Z,4.48
2022-11-17T06:05:15.677Z,4.50
2022-11-17T06:07:47.021Z,4.50
2022-11-17T06:10:14.922Z,4.50
2022-11-17T06:12:42.758Z,4.50
2022-11-17T06:15:10.696Z,4.50
2022-11-17T06:17:46.202Z,4.40
2022-11-17T06:20:21.710Z,4.40
2022-11-17T06:22:50.831Z,4.40
2022-11-17T06:25:20.627Z,4.40
2022-11-17T06:27:50.920Z,4.38
2022-11-17T06:30:19.012Z,4.38
2022-11-17T06:32:50.052Z,4.40
2022-11-17T06:35:17.948Z,4.30
2022-11-17T06:37:45.634Z,4.30
2022-11-17T06:40:13.589Z,4.30
2022-11-17T06:43:00.136Z,4.30
2022-11-17T06:45:27.999Z,4.32
2022-11-17T06:47:55.680Z,4.30
2022-11-17T06:50:23.323Z,4.30
2022-11-17T06:52:51.422Z,4.30
2022-11-17T06:55:19.079Z,4.20
2022-11-17T06:57:52.982Z,4.20
2022-11-17T07:00:21.666Z,4.20
2022-11-17T07:02:49.378Z,4.20
2022-11-17T07:05:17.444Z,4.20
2022-11-17T07:07:45.252Z,4.20
2022-11-17T07:10:13.359Z,4.20
2022-11-17T07:12:40.990Z,4.12
2022-11-17T07:15:09.286Z,4.10
2022-11-17T07:17:36.950Z,4.10
2022-11-17T07:20:05.993Z,4.10
2022-11-17T07:22:33.708Z,4.06
2022-11-17T07:25:01.585Z,4.10
2022-11-17T07:27:30.597Z,4.10
2022-11-17T07:29:58.327Z,4.10
2022-11-17T07:32:26.509Z,4.08
2022-11-17T07:34:54.245Z,4.10
2022-11-17T07:37:21.923Z,4.10
2022-11-17T07:39:49.634Z,4.10
2022-11-17T07:42:17.377Z,4.10
2022-11-17T07:44:45.079Z,4.10
2022-11-17T07:47:12.928Z,4.08
2022-11-17T07:49:40.634Z,4.00
2022-11-17T07:52:08.332Z,4.00
2022-11-17T07:54:35.998Z,4.00
2022-11-17T07:57:04.128Z,4.00
2022-11-17T07:59:31.794Z,4.00
2022-11-17T08:01:59.489Z,4.00
2022-11-17T08:04:27.465Z,3.98
2022-11-17T08:06:55.255Z,4.00
2022-11-17T08:09:22.982Z,3.94
2022-11-17T08:11:51.825Z,3.90
2022-11-17T08:14:19.510Z,3.92
2022-11-17T08:16:47.346Z,3.94
2022-11-17T08:19:15.133Z,4.00
2022-11-17T08:21:42.793Z,4.00
2022-11-17T08:24:12.263Z,4.00
2022-11-17T08:26:39.975Z,4.00
2022-11-17T08:29:07.809Z,4.00
2022-11-17T08:31:35.498Z,4.02
2022-11-17T08:34:03.194Z,4.10
2022-11-17T08:36:30.898Z,4.10
2022-11-17T08:38:58.861Z,4.10
2022-11-17T08:41:26.740Z,4.10
2022-11-17T08:43:54.443Z,4.00
2022-11-17T08:46:22.161Z,3.90
2022-11-17T08:48:53.873Z,3.96
2022-11-17T08:51:25.143Z,3.98
2022-11-17T08:53:52.902Z,3.90
2022-11-17T08:56:20.735Z,3.90
2022-11-17T08:58:48.401Z,3.86
2022-11-17T09:01:16.639Z,3.80
2022-11-17T09:03:47.538Z,3.80
2022-11-17T09:06:16.949Z,3.80
2022-11-17T09:08:46.699Z,3.88
2022-11-17T09:11:16.424Z,3.90
2022-11-17T09:13:45.867Z,3.90
2022-11-17T09:16:14.970Z,4.00
2022-11-17T09:18:43.624Z,4.00
2022-11-17T09:21:15.625Z,4.00
2022-11-17T09:23:43.469Z,4.00
2022-11-17T09:26:15.094Z,4.00
2022-11-17T09:28:44.297Z,4.04
2022-11-17T09:31:19.036Z,4.02
2022-11-17T09:33:47.201Z,4.00
2022-11-17T09:36:16.917Z,4.00
2022-11-17T09:38:46.986Z,4.00
2022-11-17T09:41:34.085Z,4.00
2022-11-17T09:44:42.152Z,3.92
2022-11-17T09:47:45.983Z,3.90
2022-11-17T09:50:23.566Z,3.90
2022-11-17T09:53:15.246Z,3.90
2022-11-17T09:55:49.819Z,3.98
2022-11-17T09:58:46.173Z,4.00
2022-11-17T10:01:17.776Z,4.00
2022-11-17T10:03:48.821Z,4.00
2022-11-17T10:06:23.700Z,4.00
2022-11-17T10:09:41.721Z,4.00
2022-11-17T10:12:31.162Z,4.10
2022-11-17T10:15:24.195Z,4.10
2022-11-17T10:17:52.269Z,4.10
2022-11-17T10:20:21.221Z,4.10
2022-11-17T10:22:53.660Z,4.10
2022-11-17T10:25:40.835Z,4.10
2022-11-17T10:28:25.190Z,4.08
2022-11-17T10:30:57.820Z,4.00
2022-11-17T10:33:39.853Z,4.00
2022-11-17T10:36:28.842Z,4.00
2022-11-17T10:39:00.503Z,4.00
2022-11-17T10:41:45.282Z,3.98
2022-11-17T10:44:12.939Z,3.94
2022-11-17T10:47:02.596Z,3.96
2022-11-17T10:49:37.943Z,3.90
2022-11-17T10:52:09.780Z,3.90
2022-11-17T10:54:38.867Z,3.90
2022-11-17T10:57:16.152Z,3.88
2022-11-17T10:59:56.867Z,3.88
2022-11-17T11:02:37.193Z,3.80
2022-11-17T11:05:24.814Z,3.80
2022-11-17T11:08:25.198Z,3.90
2022-11-17T11:11:46.150Z,3.90
2022-11-17T11:14:28.295Z,3.94
2022-11-17T11:16:55.999Z,4.00
2022-11-17T11:19:23.739Z,4.00
2022-11-17T11:22:16.891Z,4.00
2022-11-17T11:25:44.829Z,4.02
2022-11-17T11:28:59.722Z,4.10
2022-11-17T11:32:31.895Z,4.06
2022-11-17T11:35:27.483Z,4.00
2022-11-17T11:38:04.150Z,4.00
2022-11-17T11:40:42.462Z,4.00
2022-11-17T11:43:43.710Z,3.90
2022-11-17T11:46:23.762Z,3.82
2022-11-17T11:48:56.538Z,3.80
2022-11-17T11:51:37.014Z,3.80
2022-11-17T11:54:40.455Z,3.80
2022-11-17T11:57:20.528Z,3.80
2022-11-17T12:00:21.606Z,3.80
2022-11-17T12:03:25.466Z,3.90
2022-11-17T12:06:44.022Z,3.90
2022-11-17T12:10:05.646Z,3.90
2022-11-17T12:12:43.993Z,3.80
2022-11-17T12:15:20.485Z,3.80
2022-11-17T12:18:06.610Z,3.80
2022-11-17T12:20:51.040Z,3.80
2022-11-17T12:23:27.947Z,3.70
2022-11-17T12:25:59.152Z,3.70
2022-11-17T12:28:41.408Z,3.60
2022-11-17T12:31:24.272Z,3.56
2022-11-17T12:33:52.307Z,3.50
2022-11-17T12:36:34.039Z,3.50
2022-11-17T12:39:07.304Z,3.50
2022-11-17T12:41:47.246Z,3.50
2022-11-17T12:44:36.761Z,3.50
2022-11-17T12:47:13.975Z,3.56
2022-11-17T12:49:59.902Z,3.60
2022-11-17T12:52:50.296Z,3.60
2022-11-17T12:55:40.208Z,3.50
2022-11-17T12:58:38.105Z,3.50
2022-11-17T13:01:34.442Z,3.50
2022-11-17T13:04:17.190Z,3.50
2022-11-17T13:07:06.425Z,3.60
2022-11-17T13:09:36.583Z,3.50
2022-11-17T13:12:07.781Z,3.50
2022-11-17T13:14:52.382Z,3.50
2022-11-17T13:17:27.882Z,3.50
2022-11-17T13:20:12.702Z,3.40
2022-11-17T13:22:42.164Z,3.40
2022-11-17T13:25:28.514Z,3.40
2022-11-17T13:28:01.250Z,3.40
2022-11-17T13:30:33.089Z,3.40
2022-11-17T13:33:03.956Z,3.40
2022-11-17T13:35:36.159Z,3.40
2022-11-17T13:38:19.618Z,3.40
2022-11-17T13:40:51.000Z,3.38
2022-11-17T13:43:25.120Z,3.30
2022-11-17T13:45:54.906Z,3.30
2022-11-17T13:48:36.678Z,3.30
2022-11-17T13:51:19.776Z,3.30
2022-11-17T13:54:13.273Z,3.24
2022-11-17T13:56:51.330Z,3.20
2022-11-17T13:59:26.746Z,3.20
2022-11-17T14:02:17.249Z,3.30
2022-11-17T14:05:18.355Z,3.30
2022-11-17T14:07:47.128Z,3.30
2022-11-17T14:10:20.931Z,3.30
2022-11-17T14:13:08.614Z,3.30
2022-11-17T14:15:42.402Z,3.26
2022-11-17T14:18:37.427Z,3.20
2022-11-17T14:21:08.111Z,3.20
2022-11-17T14:23:36.465Z,3.20
2022-11-17T14:26:05.449Z,3.30
2022-11-17T14:28:33.620Z,3.30
2022-11-17T14:31:01.366Z,3.30
2022-11-17T14:33:28.994Z,3.30
2022-11-17T14:35:59.679Z,3.30
2022-11-17T14:38:27.612Z,3.20
2022-11-17T14:40:55.310Z,3.20
2022-11-17T14:43:23.157Z,3.20
2022-11-17T14:45:50.955Z,3.20
2022-11-17T14:48:20.260Z,3.24
2022-11-17T14:50:48.688Z,3.20
2022-11-17T14:53:16.512Z,3.30
2022-11-17T14:55:44.218Z,3.30
2022-11-17T14:58:11.853Z,3.30
2022-11-17T15:00:39.531Z,3.30
2022-11-17T15:03:07.514Z,3.30
2022-11-17T15:05:35.221Z,3.30
2022-11-17T15:08:03.286Z,3.20
2022-11-17T15:10:30.931Z,3.20
2022-11-17T15:12:58.668Z,3.20
2022-11-17T15:15:27.045Z,3.20
2022-11-17T15:17:54.974Z,3.20
2022-11-17T15:20:22.578Z,3.20
2022-11-17T15:22:50.251Z,3.20
2022-11-17T15:25:17.941Z,3.20
2022-11-17T15:27:45.753Z,3.20
2022-11-17T15:30:14.432Z,3.20
2022-11-17T15:32:42.114Z,3.20
2022-11-17T15:35:10.561Z,3.20
2022-11-17T15:37:38.155Z,3.20
2022-11-17T15:40:06.862Z,3.20
2022-11-17T15:42:34.946Z,3.20
2022-11-17T15:45:02.759Z,3.20
2022-11-17T15:47:30.473Z,3.10
2022-11-17T15:49:58.573Z,3.10
2022-11-17T15:52:48.648Z,3.10
2022-11-17T15:55:14.350Z,3.10
2022-11-17T15:57:42.049Z,3.10
2022-11-17T16:00:10.319Z,3.20
2022-11-17T16:02:41.235Z,3.20
2022-11-17T16:05:09.289Z,3.10
2022-11-17T16:07:37.097Z,3.10
2022-11-17T16:10:05.422Z,3.10
2022-11-17T16:12:33.209Z,3.10
2022-11-17T16:15:00.932Z,3.10
2022-11-17T16:17:28.725Z,3.10
2022-11-17T16:19:56.753Z,3.10
2022-11-17T16:22:24.474Z,3.14
2022-11-17T16:24:52.257Z,3.20
2022-11-17T16:27:19.992Z,3.20
2022-11-17T16:29:47.719Z,3.20
2022-11-17T16:32:15.421Z,3.10
2022-11-17T16:34:48.418Z,3.10
2022-11-17T16:37:16.201Z,3.10
2022-11-17T16:39:43.894Z,3.10
2022-11-17T16:42:12.187Z,3.10
2022-11-17T16:44:39.890Z,3.10
2022-11-17T16:47:07.630Z,3.20
2022-11-17T16:49:35.859Z,3.20
2022-11-17T16:52:03.583Z,3.20
2022-11-17T16:54:31.231Z,3.10
2022-11-17T16:56:58.971Z,3.10
2022-11-17T16:59:27.059Z,3.02
2022-11-17T17:01:54.761Z,3.02
2022-11-17T17:04:22.522Z,3.00
2022-11-17T17:06:50.392Z,3.00
2022-11-17T17:09:21.903Z,3.04
2022-11-17T17:11:54.254Z,3.00
2022-11-17T17:14:22.572Z,3.00
2022-11-17T17:16:50.410Z,3.00
2022-11-17T17:19:18.594Z,3.00
2022-11-17T17:21:46.749Z,3.00
2022-11-17T17:24:14.715Z,2.98
2022-11-17T17:26:42.786Z,2.90
2022-11-17T17:29:12.162Z,2.90
2022-11-17T17:31:42.469Z,2.90
2022-11-17T17:34:13.980Z,2.90
2022-11-17T17:36:41.731Z,2.90
2022-11-17T17:39:15.668Z,2.90
2022-11-17T17:41:44.490Z,2.90
2022-11-17T17:44:19.268Z,3.00
2022-11-17T17:46:48.408Z,2.90
2022-11-17T17:49:18.826Z,2.90
2022-11-17T17:51:47.207Z,2.90
2022-11-17T17:54:18.994Z,2.90
2022-11-17T17:56:47.955Z,2.92
2022-11-17T17:59:16.676Z,3.00
2022-11-17T18:01:46.309Z,2.98
2022-11-17T18:04:16.099Z,2.90
2022-11-17T18:06:48.114Z,2.90
2022-11-17T18:09:19.393Z,2.90
2022-11-17T18:11:51.551Z,2.90
2022-11-17T18:14:24.511Z,2.90
2022-11-17T18:16:54.109Z,2.90
2022-11-17T18:19:23.980Z,3.00
2022-11-17T18:21:53.450Z,3.00
2022-11-17T18:24:21.462Z,3.00
2022-11-17T18:26:49.534Z,3.00
2022-11-17T18:29:19.521Z,3.00
2022-11-17T18:31:49.282Z,3.00
2022-11-17T18:34:23.601Z,3.00
2022-11-17T18:36:55.588Z,3.00
2022-11-17T18:39:23.993Z,2.90
2022-11-17T18:41:51.757Z,2.90
2022-11-17T18:44:19.833Z,2.86
2022-11-17T18:46:47.824Z,2.80
2022-11-17T18:49:16.107Z,2.90
2022-11-17T18:51:44.315Z,2.90
2022-11-17T18:54:13.776Z,2.90
2022-11-17T18:56:42.200Z,2.80
2022-11-17T18:59:12.981Z,2.80
2022-11-17T19:01:42.848Z,2.70
2022-11-17T19:04:14.859Z,2.72
2022-11-17T19:06:42.893Z,2.70
2022-11-17T19:09:11.397Z,2.70
2022-11-17T19:11:39.522Z,2.70
2022-11-17T19:14:07.414Z,2.70
2022-11-17T19:16:44.033Z,2.68
2022-11-17T19:19:13.673Z,2.70
2022-11-17T19:21:42.743Z,2.70
2022-11-17T19:24:10.717Z,2.70
2022-11-17T19:26:38.570Z,2.70
2022-11-17T19:29:16.016Z,2.70
2022-11-17T19:31:46.834Z,2.70
2022-11-17T19:34:15.847Z,2.70
2022-11-17T19:36:44.941Z,2.80
2022-11-17T19:39:14.201Z,2.80
2022-11-17T19:41:44.983Z,2.80
2022-11-17T19:44:13.042Z,2.80
2022-11-17T19:46:40.915Z,2.80
2022-11-17T19:49:08.807Z,2.80
2022-11-17T19:51:37.098Z,2.70
2022-11-17T19:54:08.528Z,2.78
2022-11-17T19:56:36.842Z,2.80
2022-11-17T19:59:06.145Z,2.90
2022-11-17T20:01:34.261Z,2.90
2022-11-17T20:04:02.341Z,2.90
2022-11-17T20:06:37.581Z,2.90
2022-11-17T20:09:12.219Z,2.90
2022-11-17T20:11:40.878Z,2.90
2022-11-17T20:14:09.352Z,2.90
2022-11-17T20:16:38.831Z,2.90
2022-11-17T20:19:06.739Z,2.90
2022-11-17T20:21:34.801Z,3.00
2022-11-17T20:24:03.226Z,3.00
2022-11-17T20:26:35.045Z,3.02
2022-11-17T20:29:02.912Z,3.00
2022-11-17T20:31:34.440Z,3.00
2022-11-17T20:34:05.246Z,2.98
2022-11-17T20:36:35.261Z,2.96
2022-11-17T20:39:06.577Z,2.90
2022-11-17T20:41:34.741Z,2.90
2022-11-17T20:44:03.420Z,2.86
2022-11-17T20:46:31.621Z,2.80
2022-11-17T20:48:59.407Z,2.72
2022-11-17T20:51:27.098Z,2.70
2022-11-17T20:53:54.907Z,2.80
2022-11-17T20:56:22.739Z,2.80
2022-11-17T20:58:50.536Z,2.80
2022-11-17T21:01:21.743Z,2.80
2022-11-17T21:03:50.065Z,2.80
2022-11-17T21:06:19.787Z,2.80
2022-11-17T21:08:47.570Z,2.80
2022-11-17T21:11:38.336Z,2.80
2022-11-17T21:14:08.471Z,2.80
2022-11-17T21:16:45.696Z,2.70
2022-11-17T21:19:14.451Z,2.70
2022-11-17T21:21:45.637Z,2.70
2022-11-17T21:24:13.504Z,2.68
2022-11-17T21:26:41.850Z,2.60
2022-11-17T21:29:09.611Z,2.68
2022-11-17T21:31:37.988Z,2.70
2022-11-17T21:34:07.540Z,2.60
2022-11-17T21:36:35.896Z,2.60
2022-11-17T21:39:04.566Z,2.50
2022-11-17T21:41:38.575Z,2.50
2022-11-17T21:44:06.284Z,2.50
2022-11-17T21:46:36.462Z,2.50
2022-11-17T21:49:04.391Z,2.50
2022-11-17T21:51:38.291Z,2.60
2022-11-17T21:54:09.960Z,2.62
2022-11-17T21:56:37.873Z,2.70
2022-11-17T21:59:11.584Z,2.70
2022-11-17T22:01:40.182Z,2.72
2022-11-17T22:04:08.099Z,2.70
2022-11-17T22:06:39.116Z,2.70
2022-11-17T22:09:07.449Z,2.70
2022-11-17T22:11:35.594Z,2.70
2022-11-17T22:14:19.230Z,2.70
2022-11-17T22:16:48.962Z,2.62
2022-11-17T22:19:19.289Z,2.70
2022-11-17T22:21:53.818Z,2.70
2022-11-17T22:24:21.642Z,2.70
2022-11-17T22:26:51.597Z,2.70
2022-11-17T22:29:21.923Z,2.70
2022-11-17T22:31:50.562Z,2.70
2022-11-17T22:34:19.134Z,2.70
2022-11-17T22:36:46.757Z,2.70
2022-11-17T22:39:16.442Z,2.62
2022-11-17T22:41:44.259Z,2.60
2022-11-17T22:44:16.240Z,2.60
2022-11-17T22:46:44.206Z,2.60
2022-11-17T22:49:12.736Z,2.60
2022-11-17T22:51:59.195Z,2.60
2022-11-17T22:54:27.182Z,2.60
2022-11-17T22:56:54.875Z,2.58
2022-11-17T22:59:27.539Z,2.50
2022-11-17T23:01:55.775Z,2.50
2022-11-17T23:04:23.934Z,2.50
2022-11-17T23:06:51.919Z,2.50
2022-11-17T23:09:19.796Z,2.50
2022-11-17T23:11:49.289Z,2.44
2022-11-17T23:14:16.861Z,2.42
2022-11-17T23:16:44.552Z,2.40
2022-11-17T23:19:13.842Z,2.40
2022-11-17T23:21:42.043Z,2.40
2022-11-17T23:24:12.638Z,2.38
2022-11-17T23:26:42.266Z,2.40
2022-11-17T23:29:10.361Z,2.38
2022-11-17T23:31:38.014Z,2.32
2022-11-17T23:34:10.447Z,2.30
2022-11-17T23:36:38.806Z,2.30
2022-11-17T23:39:07.253Z,2.38
2022-11-17T23:41:35.564Z,2.40
2022-11-17T23:44:03.759Z,2.40
2022-11-17T23:46:32.104Z,2.30
2022-11-17T23:48:59.729Z,2.30
2022-11-17T23:51:29.859Z,2.30
2022-11-17T23:54:00.297Z,2.30
2022-11-17T23:56:31.905Z,2.30
2022-11-17T23:58:59.784Z,2.30
